Time;durP1;ratioP1;P1;durP2;ratioP2;P2;SDS_P1;SDS_P2;PMS_P1;PMS_P2;Temp;Humidity;BMP_temperature;BMP_pressure;BME280_temperature;BME280_humidity;BME280_pressure;Samples;Min_cycle;Max_cycle;Signal;HPM_P1;HPM_P2
2021/04/16 00:01:25;;;;;;;1.67;1.00;;;;;;;14.23;45.80;94461.22;5000968;28;20037;-55
2021/04/16 00:03:51;;;;;;;0.90;0.90;;;;;;;14.22;45.52;94461.41;4977172;28;20065;-54
2021/04/16 00:06:17;;;;;;;0.82;0.82;;;;;;;14.22;45.73;94454.31;4997162;28;20022;-52
2021/04/16 00:08:42;;;;;;;0.90;0.90;;;;;;;14.22;45.83;94462.22;5011664;28;20041;-54
2021/04/16 00:11:19;;;;;;;1.17;1.08;;;;;;;14.22;45.63;94458.78;4996625;28;20029;-54
2021/04/16 00:13:46;;;;;;;0.90;0.90;;;;;;;14.23;45.63;94457.78;4977506;28;20010;-54
2021/04/16 00:16:19;;;;;;;0.80;0.80;;;;;;;14.21;45.88;94454.50;4995027;28;20034;-55
2021/04/16 00:18:48;;;;;;;0.85;0.85;;;;;;;14.21;45.60;94452.72;4973670;28;20029;-54
2021/04/16 00:21:23;;;;;;;1.08;0.82;;;;;;;14.21;45.63;94443.97;4993781;28;20042;-54
2021/04/16 00:23:49;;;;;;;0.75;0.75;;;;;;;14.21;45.77;94447.44;4984694;28;20026;-55
2021/04/16 00:26:19;;;;;;;0.90;0.90;;;;;;;14.23;45.97;94442.81;4987275;28;20037;-54
2021/04/16 00:28:50;;;;;;;0.90;0.90;;;;;;;14.21;45.66;94436.94;4995921;28;20061;-55
2021/04/16 00:31:28;;;;;;;0.95;0.95;;;;;;;14.22;45.82;94435.91;4996176;28;20033;-55
2021/04/16 00:34:04;;;;;;;0.85;0.80;;;;;;;14.21;45.82;94438.72;4977059;28;20032;-52
2021/04/16 00:36:30;;;;;;;0.82;0.82;;;;;;;14.22;45.38;94432.47;5008854;28;20026;-53
2021/04/16 00:38:56;;;;;;;1.05;1.00;;;;;;;14.22;45.64;94433.28;4974121;28;20052;-53
2021/04/16 00:41:24;;;;;;;0.82;0.82;;;;;;;14.23;46.09;94434.09;4995721;28;20037;-55
2021/04/16 00:43:59;;;;;;;0.80;0.80;;;;;;;14.20;45.89;94422.13;4994263;28;20045;-53
2021/04/16 00:46:33;;;;;;;1.10;1.00;;;;;;;14.21;45.95;94417.66;4993516;28;20035;-51
2021/04/16 00:49:03;;;;;;;0.88;0.88;;;;;;;14.20;45.87;94414.22;5007955;28;20038;-52
2021/04/16 00:51:55;;;;;;;0.95;0.88;;;;;;;14.21;45.79;94422.94;4992885;28;20032;-55
2021/04/16 00:54:34;;;;;;;0.70;0.70;;;;;;;14.20;45.45;94419.50;5020046;28;20021;-54
2021/04/16 00:56:59;;;;;;;0.97;0.90;;;;;;;14.21;45.52;94413.25;4996557;28;20030;-53
2021/04/16 00:59:40;;;;;;;0.85;0.80;;;;;;;14.21;45.73;94407.97;4999271;28;20329;-54
2021/04/16 01:02:07;;;;;;;1.70;0.88;;;;;;;14.20;45.91;94408.97;5014704;28;20098;-52
2021/04/16 01:04:32;;;;;;;0.93;0.90;;;;;;;14.20;45.42;94408.97;4985469;28;20042;-53
2021/04/16 01:07:01;;;;;;;0.80;0.80;;;;;;;14.22;45.45;94406.94;5002443;28;20028;-55
2021/04/16 01:09:33;;;;;;;0.68;0.68;;;;;;;14.21;45.81;94405.34;5018338;28;20100;-55
2021/04/16 01:12:08;;;;;;;1.00;0.90;;;;;;;14.21;45.64;94399.25;5018115;28;20078;-54
2021/04/16 01:14:46;;;;;;;1.00;1.00;;;;;;;14.22;45.45;94403.50;5000255;28;20022;-55
2021/04/16 01:17:20;;;;;;;0.98;0.90;;;;;;;14.20;45.58;94395.81;5001023;28;20044;-53
2021/04/16 01:20:06;;;;;;;0.70;0.70;;;;;;;14.19;45.85;94392.34;5017622;28;20032;-55
2021/04/16 01:22:49;;;;;;;0.90;0.90;;;;;;;14.20;45.57;94390.56;5019766;28;20081;-55
2021/04/16 01:25:18;;;;;;;0.70;0.70;;;;;;;14.21;45.81;94392.19;5017461;28;20040;-54
2021/04/16 01:28:13;;;;;;;1.15;0.90;;;;;;;14.18;45.60;94398.63;5001975;28;20072;-54
2021/04/16 01:31:07;;;;;;;0.90;0.90;;;;;;;14.20;45.82;94393.19;4955492;28;20026;-55
2021/04/16 01:33:33;;;;;;;0.70;0.70;;;;;;;14.22;45.83;94393.00;4940617;29;20122;-54
2021/04/16 01:35:58;;;;;;;0.60;0.60;;;;;;;14.19;45.96;94391.53;4955154;29;20042;-53
2021/04/16 01:38:24;;;;;;;1.10;0.80;;;;;;;14.21;45.74;94381.66;4924587;29;20027;-52
2021/04/16 01:40:49;;;;;;;0.75;0.75;;;;;;;14.21;45.64;94384.28;4954480;28;20454;-55
2021/04/16 01:43:32;;;;;;;0.80;0.80;;;;;;;14.20;45.72;94390.56;4940629;29;20510;-55
2021/04/16 01:46:08;;;;;;;0.73;0.73;;;;;;;14.21;45.80;94383.47;4958547;28;20042;-54
2021/04/16 01:49:06;;;;;;;0.80;0.80;;;;;;;14.19;45.61;94392.34;4944678;28;20038;-54
2021/04/16 01:51:34;;;;;;;1.17;1.08;;;;;;;14.20;45.67;94382.66;4956243;29;20126;-53
2021/04/16 01:54:26;;;;;;;0.75;0.75;;;;;;;14.18;45.66;94380.22;4955290;29;20375;-54
2021/04/16 01:57:17;;;;;;;0.68;0.68;;;;;;;14.17;45.72;94375.94;4924911;29;20035;-51
2021/04/16 02:00:15;;;;;;;0.95;0.95;;;;;;;14.18;45.62;94379.38;4926757;29;20037;-55
2021/04/16 02:02:41;;;;;;;0.77;0.77;;;;;;;14.19;45.68;94371.28;4898211;29;20050;-53
2021/04/16 02:05:07;;;;;;;0.70;0.70;;;;;;;14.20;45.82;94369.50;4899012;29;20044;-55
2021/04/16 02:07:32;;;;;;;1.15;1.13;;;;;;;14.19;45.64;94373.13;4894102;29;20040;-52
2021/04/16 02:10:00;;;;;;;0.88;0.88;;;;;;;14.20;45.60;94369.50;4892406;29;20028;-54
2021/04/16 02:12:26;;;;;;;0.80;0.80;;;;;;;14.22;45.77;94364.03;4902008;29;20135;-53
2021/04/16 02:15:03;;;;;;;0.80;0.80;;;;;;;14.19;46.01;94370.50;4894729;29;20040;-54
2021/04/16 02:17:30;;;;;;;0.82;0.82;;;;;;;14.21;45.95;94368.50;4898458;29;20056;-53
2021/04/16 02:20:08;;;;;;;0.60;0.60;;;;;;;14.19;45.82;94362.59;4906995;29;20035;-52
2021/04/16 02:22:37;;;;;;;1.13;1.03;;;;;;;14.20;45.89;94364.22;4904425;29;20028;-53
2021/04/16 02:25:05;;;;;;;0.77;0.77;;;;;;;14.21;46.02;94365.03;4886088;29;20028;-55
2021/04/16 02:27:31;;;;;;;1.02;0.75;;;;;;;14.21;45.42;94367.66;4924791;29;20075;-51
2021/04/16 02:29:57;;;;;;;1.02;0.80;;;;;;;14.21;45.47;94365.03;4937077;29;20131;-55
2021/04/16 02:32:22;;;;;;;0.73;0.73;;;;;;;14.20;45.49;94364.22;4923402;29;20047;-55
2021/04/16 02:34:47;;;;;;;0.80;0.80;;;;;;;14.20;45.80;94358.97;4920088;29;20061;-55
2021/04/16 02:37:17;;;;;;;0.70;0.70;;;;;;;14.19;45.89;94358.13;4925380;29;20038;-55
2021/04/16 02:39:42;;;;;;;;;;;;;;;14.14;45.77;94355.28;4968782;28;20038;-54
2021/04/16 02:42:08;;;;;;;0.95;0.88;;;;;;;14.18;46.00;94361.78;4998646;28;19910;-54
2021/04/16 02:44:33;;;;;;;1.00;0.90;;;;;;;14.21;45.75;94357.97;4981805;28;20061;-55
2021/04/16 02:47:00;;;;;;;0.90;0.90;;;;;;;14.20;45.51;94356.34;4981973;28;20041;-55
2021/04/16 02:49:28;;;;;;;0.80;0.80;;;;;;;14.20;45.44;94358.97;4976859;28;20040;-53
2021/04/16 02:52:03;;;;;;;0.70;0.70;;;;;;;14.19;45.78;94357.34;4994996;28;20041;-54
2021/04/16 02:54:31;;;;;;;1.00;1.00;;;;;;;14.21;45.47;94359.78;4996540;28;20046;-54
2021/04/16 02:56:57;;;;;;;0.93;0.70;;;;;;;14.22;45.72;94356.16;4978928;28;20125;-54
2021/04/16 02:59:30;;;;;;;0.90;0.90;;;;;;;14.19;46.14;94355.50;4991341;28;20079;-54
2021/04/16 03:01:56;;;;;;;0.50;0.50;;;;;;;14.21;45.80;94357.97;5014295;28;20068;-54
2021/04/16 03:04:22;;;;;;;0.90;0.90;;;;;;;14.19;45.80;94357.34;4996853;28;20065;-55
2021/04/16 03:06:50;;;;;;;0.90;0.90;;;;;;;14.19;45.94;94354.69;4981718;28;20033;-55
2021/04/16 03:09:20;;;;;;;0.60;0.60;;;;;;;14.20;45.67;94353.72;4994929;28;20187;-53
2021/04/16 03:11:46;;;;;;;0.73;0.73;;;;;;;14.19;45.51;94355.50;4990288;28;20111;-54
2021/04/16 03:14:14;;;;;;;0.80;0.80;;;;;;;14.21;45.89;94352.72;4996432;28;20468;-54
2021/04/16 03:16:44;;;;;;;0.85;0.85;;;;;;;14.21;45.89;94354.50;5013837;28;20032;-54
2021/04/16 03:19:30;;;;;;;1.02;1.02;;;;;;;14.19;45.87;94349.44;4995972;28;20064;-54
2021/04/16 03:21:56;;;;;;;0.75;0.75;;;;;;;14.19;45.82;94344.97;5010449;28;20037;-55
2021/04/16 03:24:28;;;;;;;0.85;0.85;;;;;;;14.21;45.59;94349.25;4998102;28;20113;-54
2021/04/16 03:27:01;;;;;;;0.85;0.85;;;;;;;14.19;45.56;94337.09;5007022;28;20037;-53
2021/04/16 03:29:30;;;;;;;1.10;1.00;;;;;;;14.20;46.00;94343.19;4981990;28;20029;-55
2021/04/16 03:32:01;;;;;;;0.93;0.73;;;;;;;14.21;45.60;94346.63;4977628;28;20080;-55
2021/04/16 03:34:31;;;;;;;0.73;0.70;;;;;;;14.19;46.06;94347.63;4981351;28;20018;-52
2021/04/16 03:36:56;;;;;;;0.82;0.82;;;;;;;14.20;46.03;94348.44;4997386;28;20044;-54
2021/04/16 03:39:24;;;;;;;0.75;0.75;;;;;;;14.19;45.75;94344.97;5011064;28;20026;-52
2021/04/16 03:41:50;;;;;;;0.85;0.85;;;;;;;14.19;45.67;94342.34;5008625;28;20461;-54
2021/04/16 03:44:19;;;;;;;0.73;0.73;;;;;;;14.20;45.78;94343.19;4995851;28;20022;-54
2021/04/16 03:46:49;;;;;;;0.90;0.90;;;;;;;14.20;45.77;94348.44;5013125;28;20033;-54
2021/04/16 03:49:24;;;;;;;0.90;0.90;;;;;;;14.19;45.59;94349.44;5012768;28;20034;-54
2021/04/16 03:51:56;;;;;;;0.80;0.80;;;;;;;14.18;46.11;94346.00;4993990;28;20034;-54
2021/04/16 03:54:27;;;;;;;0.93;0.90;;;;;;;14.18;45.97;94346.00;4996207;28;20022;-54
2021/04/16 03:57:03;;;;;;;0.60;0.60;;;;;;;14.18;45.71;94348.63;4981017;28;20073;-54
2021/04/16 03:59:29;;;;;;;0.70;0.70;;;;;;;14.19;45.72;94339.72;4996034;28;20057;-54
2021/04/16 04:01:55;;;;;;;0.85;0.85;;;;;;;14.21;45.72;94351.88;4980638;28;20022;-54
2021/04/16 04:04:29;;;;;;;0.73;0.73;;;;;;;14.17;45.69;94347.00;4996582;28;20036;-52
2021/04/16 04:06:55;;;;;;;0.68;0.68;;;;;;;14.20;46.06;94351.06;4980127;28;20026;-55
2021/04/16 04:09:22;;;;;;;0.70;0.70;;;;;;;14.18;46.00;94348.63;5012100;28;20029;-53
2021/04/16 04:11:48;;;;;;;0.80;0.80;;;;;;;14.19;45.91;94358.13;4996545;28;20177;-54
2021/04/16 04:14:15;;;;;;;0.85;0.85;;;;;;;14.19;46.02;94352.88;4996778;28;20026;-54
2021/04/16 04:16:48;;;;;;;0.85;0.70;;;;;;;14.21;45.66;94359.78;4996190;28;20079;-54
2021/04/16 04:19:14;;;;;;;1.20;0.90;;;;;;;14.19;45.86;94355.50;4995033;28;20080;-54
2021/04/16 04:21:41;;;;;;;0.88;0.88;;;;;;;14.21;45.51;94360.59;5002762;28;20034;-53
2021/04/16 04:24:08;;;;;;;0.90;0.90;;;;;;;14.21;45.88;94363.25;5009530;28;20023;-52
2021/04/16 04:26:37;;;;;;;0.82;0.82;;;;;;;14.21;45.63;94359.78;5001190;28;20050;-55
2021/04/16 04:29:07;;;;;;;0.90;0.90;;;;;;;14.20;45.67;94366.88;4976616;28;20072;-55
2021/04/16 04:31:32;;;;;;;0.93;0.90;;;;;;;14.19;45.66;94360.78;4999881;28;20033;-52
2021/04/16 04:34:10;;;;;;;1.02;0.70;;;;;;;14.18;46.15;94363.59;4995826;28;20065;-54
2021/04/16 04:36:35;;;;;;;0.82;0.82;;;;;;;14.19;45.54;94355.50;4979797;28;20026;-54
2021/04/16 04:39:03;;;;;;;0.90;0.90;;;;;;;14.20;45.46;94361.59;5012271;28;20034;-54
2021/04/16 04:41:29;;;;;;;0.90;0.90;;;;;;;14.19;45.68;94363.41;5005947;28;20054;-54
2021/04/16 04:43:54;;;;;;;1.42;1.10;;;;;;;14.20;45.54;94366.88;4993247;28;20034;-54
2021/04/16 04:46:21;;;;;;;0.90;0.90;;;;;;;14.18;45.68;94367.06;4979318;28;20025;-54
2021/04/16 04:48:46;;;;;;;0.82;0.82;;;;;;;14.19;45.78;94363.41;4994569;28;20029;-54
2021/04/16 04:51:15;;;;;;;1.05;0.80;;;;;;;14.20;45.96;94361.59;4979220;28;20026;-55
2021/04/16 04:53:47;;;;;;;0.90;0.68;;;;;;;14.18;45.67;94367.06;4995860;28;20026;-54
2021/04/16 04:56:14;;;;;;;0.85;0.85;;;;;;;14.19;45.96;94367.88;4979094;28;20034;-55
2021/04/16 04:58:57;;;;;;;0.90;0.90;;;;;;;14.18;45.68;94368.84;4993286;28;20041;-54
2021/04/16 05:01:25;;;;;;;0.70;0.70;;;;;;;14.18;45.65;94364.44;4993276;28;20022;-54
2021/04/16 05:03:51;;;;;;;1.33;0.70;;;;;;;14.18;45.87;94364.44;5003323;28;20030;-54
2021/04/16 05:06:16;;;;;;;0.98;0.98;;;;;;;14.19;45.94;94368.66;4979759;28;20057;-54
2021/04/16 05:08:44;;;;;;;1.00;1.00;;;;;;;14.20;45.81;94369.50;4990025;28;20030;-54
2021/04/16 05:11:11;;;;;;;0.80;0.80;;;;;;;14.20;45.88;94380.03;4992059;28;20029;-54
2021/04/16 05:13:38;;;;;;;0.95;0.93;;;;;;;14.20;45.67;94377.41;4990414;28;20026;-53
2021/04/16 05:16:03;;;;;;;0.88;0.88;;;;;;;14.19;46.06;94373.94;4989310;28;20049;-54
2021/04/16 05:18:31;;;;;;;0.77;0.77;;;;;;;14.20;45.54;94366.88;4979984;28;20024;-54
2021/04/16 05:20:57;;;;;;;0.70;0.70;;;;;;;14.20;46.10;94377.41;4980106;28;20033;-54
2021/04/16 05:23:24;;;;;;;0.80;0.80;;;;;;;14.19;45.79;94370.50;4980020;28;20081;-53
2021/04/16 05:25:49;;;;;;;0.80;0.80;;;;;;;14.19;45.50;94373.94;4996011;28;20033;-54
2021/04/16 05:28:21;;;;;;;0.98;0.98;;;;;;;14.20;45.73;94377.41;4993558;28;20042;-55
2021/04/16 05:30:47;;;;;;;0.77;0.77;;;;;;;14.21;46.10;94380.81;5011758;28;20029;-55
2021/04/16 05:33:12;;;;;;;0.82;0.82;;;;;;;14.18;46.07;94374.13;4996166;28;20030;-55
2021/04/16 05:35:38;;;;;;;1.25;1.10;;;;;;;14.18;45.83;94380.22;4977137;28;20093;-55
2021/04/16 05:38:03;;;;;;;0.77;0.77;;;;;;;14.19;45.72;94388.91;4987522;28;20034;-54
2021/04/16 05:40:29;;;;;;;0.80;0.80;;;;;;;14.18;45.86;94390.75;5019637;28;20077;-54
2021/04/16 05:42:54;;;;;;;0.90;0.90;;;;;;;14.19;45.71;94384.44;5003559;28;20022;-56
2021/04/16 05:45:29;;;;;;;0.80;0.80;;;;;;;14.18;45.84;94382.00;4969218;28;21454;-54
2021/04/16 05:47:55;;;;;;;0.88;0.88;;;;;;;14.17;45.81;94383.00;5007744;28;20520;-55
2021/04/16 05:50:22;;;;;;;0.90;0.90;;;;;;;14.19;45.78;94378.38;4994937;28;20036;-56
2021/04/16 05:52:54;;;;;;;0.80;0.80;;;;;;;14.19;45.95;94381.81;4997976;28;20022;-55
2021/04/16 05:55:27;;;;;;;0.82;0.82;;;;;;;14.19;45.92;94387.09;5008726;28;20053;-56
2021/04/16 05:57:53;;;;;;;0.80;0.80;;;;;;;14.19;45.85;94394.19;5011044;28;20021;-55
2021/04/16 06:00:21;;;;;;;0.70;0.70;;;;;;;14.19;45.53;94396.81;4995940;28;20030;-49
2021/04/16 06:02:48;;;;;;;0.90;0.90;;;;;;;14.18;45.45;94396.00;5007198;28;20116;-55
2021/04/16 06:05:18;;;;;;;0.70;0.70;;;;;;;14.19;46.15;94391.53;4980689;28;20029;-55
2021/04/16 06:07:54;;;;;;;0.80;0.65;;;;;;;14.19;45.52;94400.25;4995109;28;20049;-55
2021/04/16 06:10:33;;;;;;;0.80;0.80;;;;;;;14.17;45.90;94398.78;4993224;28;20094;-55
2021/04/16 06:13:04;;;;;;;0.57;0.57;;;;;;;14.19;46.03;94402.06;5008522;28;20027;-55
2021/04/16 06:15:56;;;;;;;0.75;0.75;;;;;;;14.17;45.95;94394.38;5002902;28;20026;-56
2021/04/16 06:18:23;;;;;;;0.80;0.80;;;;;;;14.18;45.91;94400.44;4976641;28;20046;-56
2021/04/16 06:21:07;;;;;;;0.63;0.63;;;;;;;14.17;45.63;94404.91;4961434;28;20038;-55
2021/04/16 06:23:35;;;;;;;0.60;0.60;;;;;;;14.18;45.54;94403.91;4958047;28;20097;-55
2021/04/16 06:26:01;;;;;;;0.95;0.95;;;;;;;14.20;45.95;94403.72;4973732;28;20030;-50
2021/04/16 06:28:27;;;;;;;0.70;0.70;;;;;;;14.19;45.78;94405.50;4961065;28;20033;-55
2021/04/16 06:30:54;;;;;;;0.70;0.70;;;;;;;14.21;45.81;94404.50;4957848;28;20062;-55
2021/04/16 06:33:46;;;;;;;0.73;0.73;;;;;;;14.14;45.56;94400.00;4975865;28;20125;-56
2021/04/16 06:36:14;;;;;;;0.80;0.80;;;;;;;14.14;45.82;94400.00;4974556;28;20513;-56
2021/04/16 06:38:41;;;;;;;0.80;0.80;;;;;;;14.15;45.53;94400.81;4960131;28;20022;-55
2021/04/16 06:41:19;;;;;;;0.77;0.77;;;;;;;14.12;45.91;94398.56;4969974;28;20057;-59
2021/04/16 06:43:48;;;;;;;0.98;0.98;;;;;;;14.22;45.70;94399.06;4958730;28;20030;-58
2021/04/16 06:46:28;;;;;;;3.17;1.40;;;;;;;14.18;45.53;94403.06;4967103;28;20026;-60
2021/04/16 06:49:07;;;;;;;3.50;1.50;;;;;;;14.04;45.38;94396.88;4990459;28;20042;-55
2021/04/16 06:51:44;;;;;;;6.35;1.50;;;;;;;14.12;44.71;94401.19;4970776;28;20023;-55
2021/04/16 06:54:22;;;;;;;5.57;1.58;;;;;;;14.14;44.53;94396.56;4975831;28;20030;-56
2021/04/16 06:56:50;;;;;;;1.92;1.13;;;;;;;14.15;44.97;94392.94;5005247;28;20026;-55
2021/04/16 06:59:16;;;;;;;2.03;1.30;;;;;;;14.15;45.06;94395.56;4980176;28;20030;-54
2021/04/16 07:01:56;;;;;;;4.70;1.38;;;;;;;14.15;45.11;94390.28;4997557;28;20101;-49
2021/04/16 07:04:26;;;;;;;4.15;1.10;;;;;;;14.15;45.32;94398.19;4999271;28;20133;-55
2021/04/16 07:06:58;;;;;;;2.33;1.20;;;;;;;14.15;45.21;94398.19;5013023;28;20184;-56
2021/04/16 07:09:34;;;;;;;2.00;1.10;;;;;;;14.13;45.47;94398.38;4997947;28;20024;-56
2021/04/16 07:12:19;;;;;;;1.23;1.13;;;;;;;14.12;45.51;94403.84;4993502;28;20506;-55
2021/04/16 07:15:04;;;;;;;2.72;1.25;;;;;;;14.12;45.15;94395.94;4981053;28;20046;-56
2021/04/16 07:17:32;;;;;;;3.70;1.17;;;;;;;14.15;45.11;94400.81;4980395;28;20026;-55
2021/04/16 07:19:58;;;;;;;2.72;1.25;;;;;;;14.14;45.21;94399.19;4985431;28;20650;-54
2021/04/16 07:22:37;;;;;;;2.55;1.15;;;;;;;14.15;45.14;94403.44;4988114;28;20107;-56
2021/04/16 07:25:10;;;;;;;2.15;1.08;;;;;;;14.15;45.21;94400.81;5022084;28;20066;-55
2021/04/16 07:27:47;;;;;;;2.70;0.82;;;;;;;14.14;45.45;94415.81;5025544;28;20026;-55
2021/04/16 07:30:40;;;;;;;1.27;0.88;;;;;;;14.13;45.54;94405.44;4988229;28;20116;-56
2021/04/16 07:33:26;;;;;;;2.83;1.20;;;;;;;14.13;45.43;94410.69;5011265;28;20022;-56
2021/04/16 07:35:52;;;;;;;1.65;1.08;;;;;;;14.13;45.38;94408.91;5007913;28;20032;-56
2021/04/16 07:38:26;;;;;;;2.45;1.40;;;;;;;14.15;45.19;94401.63;4974548;28;20029;-56
2021/04/16 07:40:51;;;;;;;3.08;1.40;;;;;;;14.16;45.46;94405.09;4989596;28;20034;-56
2021/04/16 07:43:41;;;;;;;1.17;0.75;;;;;;;14.14;45.25;94407.06;4964773;28;20041;-55
2021/04/16 07:46:48;;;;;;;4.18;1.40;;;;;;;14.12;45.62;94409.91;4989062;28;20034;-55
2021/04/16 07:49:13;;;;;;;2.72;1.17;;;;;;;14.15;45.23;94408.72;4991717;28;20061;-55
2021/04/16 07:51:39;;;;;;;1.30;1.00;;;;;;;14.14;45.12;94410.53;4993411;28;20053;-56
2021/04/16 07:54:28;;;;;;;1.20;1.10;;;;;;;14.13;45.00;94408.91;4994564;28;20097;-55
2021/04/16 07:57:22;;;;;;;1.65;1.10;;;;;;;14.12;45.37;94412.53;4993338;28;20026;-55
2021/04/16 08:00:20;;;;;;;2.15;1.17;;;;;;;14.14;45.38;94414.97;4947768;29;20086;-54
2021/04/16 08:02:50;;;;;;;1.15;0.93;;;;;;;14.13;45.01;94413.34;4942175;29;20156;-55
2021/04/16 08:05:25;;;;;;;1.58;1.10;;;;;;;14.13;45.27;94418.59;4949085;28;20071;-56
2021/04/16 08:08:13;;;;;;;1.23;1.13;;;;;;;14.12;45.08;94417.78;4950113;29;20035;-52
2021/04/16 08:10:40;;;;;;;1.48;1.15;;;;;;;14.13;45.43;94414.16;4930645;29;20043;-54
2021/04/16 08:13:58;;;;;;;1.20;1.05;;;;;;;14.12;45.33;94415.16;4921761;29;20038;-55
2021/04/16 08:16:35;;;;;;;1.23;1.00;;;;;;;14.13;45.51;94415.97;4859681;29;20516;-54
2021/04/16 08:19:03;;;;;;;1.95;1.00;;;;;;;14.14;45.25;94413.16;4855707;29;20037;-55
2021/04/16 08:21:42;;;;;;;2.28;1.50;;;;;;;14.12;45.48;94420.44;4843867;29;20124;-55
2021/04/16 08:24:09;;;;;;;1.60;1.15;;;;;;;14.15;45.38;94421.88;4840431;29;20094;-52
2021/04/16 08:26:46;;;;;;;2.05;1.05;;;;;;;14.14;45.45;94415.81;4840780;29;20128;-55
2021/04/16 08:29:47;;;;;;;0.93;0.93;;;;;;;14.13;45.35;94414.16;4843776;29;20085;-55
2021/04/16 08:32:30;;;;;;;1.67;1.05;;;;;;;14.14;45.26;94418.44;4856359;29;20041;-54
2021/04/16 08:35:09;;;;;;;1.20;1.00;;;;;;;14.14;45.00;94415.81;4854417;29;20045;-55
2021/04/16 08:37:38;;;;;;;2.47;1.40;;;;;;;14.14;44.96;94414.97;4857009;29;20527;-55
2021/04/16 08:40:06;;;;;;;1.42;0.90;;;;;;;14.16;45.08;94419.03;4855325;29;20132;-54
2021/04/16 08:42:33;;;;;;;0.85;0.85;;;;;;;14.14;45.01;94414.97;4858506;29;20041;-55
2021/04/16 08:45:03;;;;;;;1.02;0.88;;;;;;;14.13;44.94;94414.16;4846100;29;20477;-55
2021/04/16 08:47:41;;;;;;;1.27;1.10;;;;;;;14.13;45.15;94413.34;4852814;29;20037;-53
2021/04/16 08:50:25;;;;;;;1.45;1.08;;;;;;;14.13;45.22;94423.84;4859778;29;20128;-56
2021/04/16 08:52:57;;;;;;;1.83;0.90;;;;;;;14.14;45.43;94412.34;4914882;28;20038;-56
2021/04/16 08:55:32;;;;;;;1.92;0.98;;;;;;;14.13;45.06;94414.16;4999906;28;20568;-54
2021/04/16 08:58:04;;;;;;;1.58;1.08;;;;;;;14.13;45.36;94415.97;5005476;28;20038;-55
2021/04/16 09:00:37;;;;;;;2.60;1.00;;;;;;;14.12;45.00;94411.72;5028222;28;20022;-54
2021/04/16 09:03:17;;;;;;;1.10;1.00;;;;;;;14.12;45.20;94417.00;4990787;28;20025;-55
2021/04/16 09:06:05;;;;;;;2.17;1.30;;;;;;;14.12;45.45;94411.72;4996546;28;20045;-55
2021/04/16 09:08:41;;;;;;;1.80;1.17;;;;;;;14.11;45.64;94415.34;4985085;28;20034;-55
2021/04/16 09:11:08;;;;;;;1.90;1.00;;;;;;;14.13;45.60;94413.34;4989470;28;20104;-55
2021/04/16 09:13:41;;;;;;;1.65;1.00;;;;;;;14.14;45.21;94415.81;4988370;28;20034;-56
2021/04/16 09:16:51;;;;;;;1.08;1.02;;;;;;;14.13;45.70;94416.81;5012898;28;20033;-55
2021/04/16 09:19:28;;;;;;;1.13;0.95;;;;;;;14.14;46.14;94414.97;5020569;28;20500;-55
2021/04/16 09:22:05;;;;;;;0.98;0.98;;;;;;;14.15;46.35;94406.88;5007234;28;20014;-55
2021/04/16 09:24:53;;;;;;;2.15;1.23;;;;;;;14.15;46.46;94404.25;5024606;28;20141;-53
2021/04/16 09:27:39;;;;;;;1.67;1.10;;;;;;;14.16;46.04;94400.63;5024869;28;20041;-54
2021/04/16 09:30:08;;;;;;;1.08;0.98;;;;;;;14.18;45.80;94403.91;5005952;28;20036;-54
2021/04/16 09:32:46;;;;;;;1.45;1.20;;;;;;;14.19;46.00;94404.69;5013093;28;20029;-55
2021/04/16 09:35:20;;;;;;;2.95;1.30;;;;;;;14.20;45.68;94401.06;5003627;28;20088;-56
2021/04/16 09:37:45;;;;;;;1.10;1.00;;;;;;;14.19;45.87;94397.63;5000863;28;20045;-55
2021/04/16 09:40:27;;;;;;;1.10;1.00;;;;;;;14.20;46.23;94401.06;5013155;28;20030;-56
2021/04/16 09:43:19;;;;;;;1.85;0.90;;;;;;;14.21;45.79;94396.63;5011463;28;20104;-55
2021/04/16 09:45:52;;;;;;;1.67;1.10;;;;;;;14.19;46.14;94404.69;4983524;28;20104;-56
2021/04/16 09:48:20;;;;;;;2.72;1.20;;;;;;;14.19;45.75;94399.44;5012254;28;20041;-56
2021/04/16 09:51:40;;;;;;;1.95;1.10;;;;;;;14.18;45.71;94397.81;5014507;28;20033;-55
2021/04/16 09:54:13;;;;;;;0.88;0.88;;;;;;;14.18;46.04;94398.63;5018418;28;20477;-55
2021/04/16 09:57:02;;;;;;;0.82;0.82;;;;;;;14.18;46.31;94401.28;5018529;28;20095;-55
2021/04/16 09:59:35;;;;;;;2.08;1.30;;;;;;;14.16;46.54;94403.25;5021783;28;20048;-52
2021/04/16 10:02:19;;;;;;;1.45;1.15;;;;;;;14.16;45.89;94397.19;4994947;28;20076;-55
2021/04/16 10:04:49;;;;;;;1.38;1.10;;;;;;;14.19;45.76;94391.53;5000407;28;20112;-56
2021/04/16 10:07:17;;;;;;;1.50;1.30;;;;;;;14.19;45.50;94394.97;5021068;28;20026;-55
2021/04/16 10:09:44;;;;;;;0.90;0.90;;;;;;;14.19;45.58;94402.88;4991172;28;20060;-56
2021/04/16 10:12:20;;;;;;;1.23;1.02;;;;;;;14.19;45.93;94402.06;5010896;28;20066;-55
2021/04/16 10:14:54;;;;;;;1.30;0.90;;;;;;;14.19;46.02;94394.97;4980247;28;20065;-54
2021/04/16 10:17:35;;;;;;;1.30;0.90;;;;;;;14.19;45.89;94388.91;4985167;28;20058;-55
2021/04/16 10:20:03;;;;;;;1.80;1.00;;;;;;;14.21;45.61;94391.34;4999724;28;20033;-56
2021/04/16 10:22:31;;;;;;;1.17;0.93;;;;;;;14.20;45.61;94403.72;5012899;28;20042;-55
2021/04/16 10:47:02;;;;;;;1.27;1.17;;;;;;;14.19;45.64;94367.88;4923142;29;20099;-55
2021/04/16 12:38:57;;;;;;;;;;;;;;;;;;;;;
2021/04/16 12:41:21;;;;;;;1.20;1.00;;;;;;;14.22;45.71;94332.47;5011819;28;20033;-55
2021/04/16 12:43:46;;;;;;;1.17;0.90;;;;;;;14.21;45.51;94331.66;4989896;28;20025;-55
2021/04/16 12:46:17;;;;;;;1.00;0.65;;;;;;;14.21;45.98;94323.75;4989805;28;20092;-56
2021/04/16 12:48:43;;;;;;;0.88;0.88;;;;;;;14.22;45.58;94320.09;4976466;28;20080;-55
2021/04/16 12:51:11;;;;;;;1.17;0.98;;;;;;;14.21;45.89;94323.75;4988197;28;20030;-55
2021/04/16 12:53:37;;;;;;;1.50;0.93;;;;;;;14.21;45.75;94320.31;4979154;28;20022;-56
2021/04/16 12:56:16;;;;;;;0.80;0.80;;;;;;;14.21;45.96;94326.41;4977049;28;20061;-55
2021/04/16 12:58:44;;;;;;;1.25;0.95;;;;;;;14.21;45.74;94323.75;4991019;28;20036;-55
2021/04/16 13:01:21;;;;;;;0.82;0.82;;;;;;;14.21;45.69;94321.13;4974057;28;20030;-54
2021/04/16 13:03:50;;;;;;;1.25;0.90;;;;;;;14.21;45.80;94313.25;4990604;28;20025;-55
2021/04/16 13:06:46;;;;;;;0.90;0.90;;;;;;;14.19;45.63;94313.41;4989763;28;20026;-56
2021/04/16 13:09:45;;;;;;;1.35;0.90;;;;;;;14.18;45.76;94311.78;5010022;28;20034;-56
2021/04/16 13:12:11;;;;;;;0.98;0.95;;;;;;;14.19;45.68;94313.41;4919458;29;20047;-55
2021/04/16 13:14:38;;;;;;;1.23;1.13;;;;;;;14.22;45.91;94311.41;4917872;29;20059;-54
2021/04/16 13:17:06;;;;;;;1.05;0.93;;;;;;;14.23;45.51;94308.59;4932844;29;20028;-56
2021/04/16 13:20:01;;;;;;;0.93;0.93;;;;;;;14.21;45.93;94317.66;4920402;29;20082;-56
2021/04/16 13:22:27;;;;;;;1.50;1.00;;;;;;;14.22;45.85;94306.16;4914817;29;20047;-56
2021/04/16 13:25:26;;;;;;;1.08;0.80;;;;;;;14.19;45.70;94302.06;4900161;29;20032;-56
2021/04/16 13:27:52;;;;;;;0.90;0.90;;;;;;;14.19;45.91;94297.59;4822277;29;20050;-56
2021/04/16 13:30:24;;;;;;;0.73;0.70;;;;;;;14.21;46.01;94300.06;4810581;29;20042;-56
2021/04/16 13:32:51;;;;;;;0.88;0.88;;;;;;;14.22;45.72;94299.06;4826319;29;20042;-52
2021/04/16 13:35:28;;;;;;;0.70;0.70;;;;;;;14.21;45.59;94289.56;4810241;29;20033;-55
2021/04/16 13:37:53;;;;;;;1.30;0.98;;;;;;;14.21;45.73;94294.81;4841353;29;20048;-57
2021/04/16 13:40:19;;;;;;;0.85;0.77;;;;;;;14.22;46.07;94296.41;4826795;29;20532;-53
2021/04/16 13:42:45;;;;;;;0.80;0.80;;;;;;;14.22;46.05;94288.53;4823551;29;20026;-55
2021/04/16 13:45:12;;;;;;;0.80;0.80;;;;;;;14.22;45.66;94285.09;4800039;29;20125;-54
2021/04/16 13:47:42;;;;;;;0.63;0.63;;;;;;;14.22;45.72;94285.91;4820847;29;20154;-55
2021/04/16 13:50:18;;;;;;;1.33;0.93;;;;;;;14.21;45.75;94281.66;4831510;29;20495;-54
2021/04/16 13:52:43;;;;;;;1.45;0.88;;;;;;;14.22;45.76;94278.00;4846848;29;20101;-54
2021/04/16 13:55:12;;;;;;;0.75;0.75;;;;;;;14.22;45.92;94272.72;4870983;29;20032;-54
2021/04/16 13:57:37;;;;;;;0.93;0.70;;;;;;;14.20;45.87;94272.13;4829513;29;20116;-53
2021/04/16 14:00:11;;;;;;;0.75;0.75;;;;;;;14.20;45.93;94269.50;4933721;28;20134;-55
2021/04/16 14:02:38;;;;;;;0.98;0.85;;;;;;;14.23;45.73;94260.41;4918927;29;20027;-57
2021/04/16 14:05:05;;;;;;;0.80;0.80;;;;;;;14.23;46.07;94276.19;4967348;28;20035;-55
2021/04/16 14:07:31;;;;;;;0.90;0.90;;;;;;;14.23;46.21;94270.94;4992402;28;20026;-55
2021/04/16 14:09:57;;;;;;;0.90;0.90;;;;;;;14.23;45.76;94270.94;4991321;28;20029;-56
2021/04/16 14:12:23;;;;;;;0.80;0.80;;;;;;;14.23;45.73;94269.09;4998079;28;20473;-55